| time (UTC) | temp F | wind direction | speed MPH | gust MPH | rain 1hr in | rain 24hr in | rain mn in | humidity % | barometer mb |
| 20260506051325 | 67 | 307 | 0.0 | 0.0 | 0.00 | 0.00 | 0.00 | 33 | 1014.3 |
| 20260506050322 | 67 | 307 | 0.0 | 0.0 | 0.00 | 0.00 | 0.00 | 31 | 1014.3 |
| 20260506044329 | 68 | 307 | 0.0 | 0.0 | 0.00 | 0.00 | 0.00 | 31 | 1014.0 |
| 20260506043327 | 68 | 307 | 0.0 | 0.0 | 0.00 | 0.00 | 0.00 | 29 | 1014.0 |
| 20260506042325 | 68 | 307 | 0.0 | 0.0 | 0.00 | 0.00 | 0.00 | 30 | 1014.1 |
| 20260506041320 | 69 | 307 | 0.0 | 0.0 | 0.00 | 0.00 | 0.00 | 30 | 1013.7 |
| 20260506040335 | 70 | 307 | 0.0 | 0.0 | 0.00 | 0.00 | 0.00 | 29 | 1013.5 |
| 20260506035334 | 70 | 306 | 0.0 | 0.0 | 0.00 | 0.00 | 0.00 | 28 | 1013.4 |
| 20260506034329 | 70 | 307 | 0.0 | 0.0 | 0.00 | 0.00 | 0.00 | 28 | 1013.5 |
| 20260506033327 | 71 | 310 | 0.0 | 0.0 | 0.00 | 0.00 | 0.00 | 27 | 1013.0 |
| 20260506032321 | 72 | 315 | 0.0 | 0.0 | 0.00 | 0.00 | 0.00 | 26 | 1012.9 |
| 20260506031339 | 72 | 302 | 0.0 | 0.0 | 0.00 | 0.00 | 0.00 | 25 | 1012.8 |
| 20260506030332 | 73 | 309 | 0.0 | 10.0 | 0.00 | 0.00 | 0.00 | 25 | 1012.6 |
| 20260506025330 | 73 | 302 | 6.0 | 16.0 | 0.00 | 0.00 | 0.00 | 25 | 1012.4 |
| 20260506024329 | 72 | 309 | 0.0 | 0.0 | 0.00 | 0.00 | 0.00 | 27 | 1012.5 |
| 20260506023327 | 72 | 277 | 0.0 | 0.0 | 0.00 | 0.00 | 0.00 | 27 | 1012.6 |
| 20260506022321 | 73 | 292 | 0.0 | 6.0 | 0.00 | 0.00 | 0.00 | 26 | 1012.7 |
| 20260506021335 | 73 | 319 | 6.0 | 13.0 | 0.00 | 0.00 | 0.00 | 26 | 1012.3 |
| 20260506020334 | 73 | 306 | 0.0 | 0.0 | 0.00 | 0.00 | 0.00 | 25 | 1012.3 |
| 20260506015329 | 73 | 311 | 0.0 | 4.0 | 0.00 | 0.00 | 0.00 | 25 | 1012.3 |
| 20260506014324 | 73 | 311 | 2.0 | 10.0 | 0.00 | 0.00 | 0.00 | 24 | 1012.9 |
| 20260506013323 | 74 | 315 | 0.0 | 7.0 | 0.00 | 0.00 | 0.00 | 24 | 1012.6 |
| 20260506012336 | 74 | 298 | 4.0 | 11.0 | 0.00 | 0.00 | 0.00 | 24 | 1012.7 |
| 20260506011331 | 74 | 308 | 5.0 | 9.0 | 0.00 | 0.00 | 0.00 | 24 | 1012.5 |
| 20260506010330 | 75 | 305 | 5.0 | 10.0 | 0.00 | 0.00 | 0.00 | 23 | 1012.6 |
| 20260506005325 | 75 | 306 | 5.0 | 10.0 | 0.00 | 0.00 | 0.00 | 23 | 1012.9 |
| 20260506004340 | 75 | 281 | 0.0 | 1.0 | 0.00 | 0.00 | 0.00 | 22 | 1012.9 |
| 20260506003334 | 76 | 279 | 0.0 | 0.0 | 0.00 | 0.00 | 0.00 | 22 | 1012.7 |
| 20260506002334 | 76 | 310 | 0.0 | 0.0 | 0.00 | 0.00 | 0.00 | 22 | 1012.6 |
| 20260506001329 | 76 | 300 | 2.0 | 8.0 | 0.00 | 0.00 | 0.00 | 22 | 1012.6 |
| 20260506000327 | 76 | 298 | 5.0 | 12.0 | 0.00 | 0.00 | 0.00 | 21 | 1012.5 |
| 20260505235324 | 77 | 321 | 7.0 | 13.0 | 0.00 | 0.00 | 0.00 | 21 | 1012.4 |
| 20260505234322 | 78 | 306 | 7.0 | 11.0 | 0.00 | 0.00 | 0.00 | 20 | 1012.3 |
| 20260505233337 | 79 | 313 | 8.0 | 12.0 | 0.00 | 0.00 | 0.00 | 20 | 1012.2 |
| 20260505232331 | 79 | 321 | 5.0 | 15.0 | 0.00 | 0.00 | 0.00 | 20 | 1012.1 |
| 20260505231329 | 80 | 293 | 0.0 | 13.0 | 0.00 | 0.00 | 0.00 | 19 | 1012.3 |
| 20260505230327 | 80 | 282 | 6.0 | 12.0 | 0.00 | 0.00 | 0.00 | 20 | 1012.3 |
| 20260505225319 | 79 | 259 | 8.0 | 17.0 | 0.00 | 0.00 | 0.00 | 21 | 1012.4 |
| 20260505224319 | 80 | 344 | 8.0 | 14.0 | 0.00 | 0.00 | 0.00 | 21 | 1012.4 |
| 20260505223317 | 79 | 313 | 5.0 | 13.0 | 0.00 | 0.00 | 0.00 | 20 | 1012.5 |
| 20260505222333 | 79 | 282 | 8.0 | 18.0 | 0.00 | 0.00 | 0.00 | 20 | 1012.6 |
| 20260505221333 | 79 | 301 | 2.0 | 14.0 | 0.00 | 0.00 | 0.00 | 20 | 1012.5 |
| 20260505220328 | 79 | 313 | 9.0 | 17.0 | 0.00 | 0.00 | 0.00 | 20 | 1012.9 |
| 20260505215325 | 78 | 227 | 3.0 | 14.0 | 0.00 | 0.00 | 0.00 | 21 | 1013.1 |
| 20260505214323 | 77 | 321 | 5.0 | 17.0 | 0.00 | 0.00 | 0.00 | 21 | 1013.2 |
| 20260505213322 | 77 | 305 | 15.0 | 19.0 | 0.00 | 0.00 | 0.00 | 20 | 1013.2 |
| 20260505212338 | 77 | 294 | 13.0 | 19.0 | 0.00 | 0.00 | 0.00 | 20 | 1013.2 |
| 20260505211333 | 77 | 267 | 14.0 | 19.0 | 0.00 | 0.00 | 0.00 | 20 | 1013.2 |
| 20260505210332 | 78 | 281 | 8.0 | 19.0 | 0.00 | 0.00 | 0.00 | 19 | 1013.2 |
| 20260505205328 | 78 | 276 | 9.0 | 18.0 | 0.00 | 0.00 | 0.00 | 20 | 1013.5 |
| 20260505204322 | 79 | 284 | 9.0 | 19.0 | 0.00 | 0.00 | 0.00 | 20 | 1013.4 |
| 20260505203321 | 80 | 292 | 11.0 | 18.0 | 0.00 | 0.00 | 0.00 | 20 | 1013.5 |
| 20260505202334 | 80 | 309 | 6.0 | 15.0 | 0.00 | 0.00 | 0.00 | 21 | 1013.7 |
| 20260505201330 | 79 | 284 | 8.0 | 17.0 | 0.00 | 0.00 | 0.00 | 22 | 1013.6 |
| 20260505200326 | 81 | 321 | 11.0 | 18.0 | 0.00 | 0.00 | 0.00 | 22 | 1013.8 |
| 20260505195325 | 80 | 230 | 3.0 | 14.0 | 0.00 | 0.00 | 0.00 | 22 | 1013.7 |
| 20260505194319 | 81 | 265 | 4.0 | 18.0 | 0.00 | 0.00 | 0.00 | 23 | 1014.1 |
| 20260505193333 | 81 | 223 | 6.0 | 15.0 | 0.00 | 0.00 | 0.00 | 23 | 1013.8 |
| 20260505192331 | 81 | 298 | 9.0 | 14.0 | 0.00 | 0.00 | 0.00 | 23 | 1014.0 |
| 20260505191326 | 80 | 240 | 2.0 | 16.0 | 0.00 | 0.00 | 0.00 | 24 | 1013.9 |
| 20260505190325 | 80 | 296 | 7.0 | 17.0 | 0.00 | 0.00 | 0.00 | 23 | 1014.1 |
| 20260505185323 | 80 | 241 | 5.0 | 16.0 | 0.00 | 0.00 | 0.00 | 23 | 1014.1 |
| 20260505184324 | 79 | 230 | 7.0 | 13.0 | 0.00 | 0.00 | 0.00 | 24 | 1014.3 |
| 20260505183320 | 78 | 228 | 8.0 | 17.0 | 0.00 | 0.00 | 0.00 | 25 | 1014.4 |
| 20260505182333 | 78 | 302 | 10.0 | 17.0 | 0.00 | 0.00 | 0.00 | 25 | 1014.4 |
| 20260505181332 | 79 | 273 | 6.0 | 15.0 | 0.00 | 0.00 | 0.00 | 25 | 1014.4 |
| 20260505180328 | 78 | 294 | 6.0 | 13.0 | 0.00 | 0.00 | 0.00 | 26 | 1014.5 |
| 20260505175324 | 78 | 276 | 4.0 | 12.0 | 0.00 | 0.00 | 0.00 | 26 | 1014.6 |
| 20260505174324 | 77 | 276 | 5.0 | 16.0 | 0.00 | 0.00 | 0.00 | 27 | 1014.4 |
| 20260505173338 | 76 | 290 | 6.0 | 16.0 | 0.00 | 0.00 | 0.00 | 27 | 1014.6 |
| 20260505172333 | 76 | 252 | 5.0 | 12.0 | 0.00 | 0.00 | 0.00 | 27 | 1015.0 |
| 20260505171328 | 76 | 313 | 6.0 | 14.0 | 0.00 | 0.00 | 0.00 | 27 | 1015.0 |
| 20260505170329 | 75 | 292 | 9.0 | 17.0 | 0.00 | 0.00 | 0.00 | 27 | 1015.0 |
| 20260505165324 | 75 | 277 | 6.0 | 17.0 | 0.00 | 0.00 | 0.00 | 29 | 1015.0 |
| 20260505164323 | 75 | 279 | 6.0 | 18.0 | 0.00 | 0.00 | 0.00 | 28 | 1015.0 |
| 20260505163324 | 75 | 295 | 9.0 | 19.0 | 0.00 | 0.00 | 0.00 | 28 | 1014.8 |
| 20260505162338 | 74 | 276 | 8.0 | 13.0 | 0.00 | 0.00 | 0.00 | 29 | 1014.9 |
| 20260505161334 | 73 | 283 | 3.0 | 14.0 | 0.00 | 0.00 | 0.00 | 30 | 1014.7 |
| 20260505160328 | 73 | 315 | 7.0 | 13.0 | 0.00 | 0.00 | 0.00 | 29 | 1014.7 |
| 20260505153320 | 74 | 308 | 0.0 | 12.0 | 0.00 | 0.00 | 0.00 | 29 | 1014.3 |
| 20260505152338 | 73 | 270 | 5.0 | 13.0 | 0.00 | 0.00 | 0.00 | 29 | 1014.3 |
| 20260505151330 | 72 | 267 | 10.0 | 15.0 | 0.00 | 0.00 | 0.00 | 29 | 1014.2 |
| 20260505150323 | 71 | 288 | 6.0 | 14.0 | 0.00 | 0.00 | 0.00 | 30 | 1014.1 |
| 20260505140338 | 68 | 273 | 8.0 | 16.0 | 0.00 | 0.00 | 0.00 | 30 | 1013.8 |
| 20260505124328 | 65 | 217 | 4.0 | 6.0 | 0.00 | 0.00 | 0.00 | 34 | 1012.9 |
| 20260505123329 | 65 | 269 | 0.0 | 3.0 | 0.00 | 0.00 | 0.00 | 34 | 1012.8 |
| 20260505122326 | 66 | 292 | 0.0 | 3.0 | 0.00 | 0.00 | 0.00 | 32 | 1012.9 |
| 20260505121324 | 66 | 267 | 0.0 | 5.0 | 0.00 | 0.00 | 0.00 | 32 | 1012.8 |
| 20260505120323 | 67 | 281 | 0.0 | 5.0 | 0.00 | 0.00 | 0.00 | 32 | 1012.9 |
| 20260505115338 | 67 | 302 | 1.0 | 10.0 | 0.00 | 0.00 | 0.00 | 31 | 1012.7 |
| 20260505114333 | 66 | 294 | 6.0 | 11.0 | 0.00 | 0.00 | 0.00 | 32 | 1012.7 |
| 20260505113328 | 65 | 277 | 0.0 | 0.0 | 0.00 | 0.00 | 0.00 | 33 | 1012.8 |
| 20260505112326 | 64 | 243 | 0.0 | 0.0 | 0.00 | 0.00 | 0.00 | 34 | 1012.8 |
| 20260505111324 | 63 | 244 | 0.0 | 0.0 | 0.00 | 0.00 | 0.00 | 34 | 1012.7 |
| 20260505110319 | 64 | 269 | 0.0 | 2.0 | 0.00 | 0.00 | 0.00 | 34 | 1012.7 |
| 20260505101324 | 66 | 296 | 0.0 | 5.0 | 0.00 | 0.00 | 0.00 | 31 | 1013.0 |
| 20260505100322 | 67 | 299 | 4.0 | 5.0 | 0.00 | 0.00 | 0.00 | 29 | 1012.8 |
| 20260505095317 | 68 | 304 | 0.0 | 0.0 | 0.00 | 0.00 | 0.00 | 29 | 1012.8 |
| 20260505094319 | 68 | 296 | 0.0 | 0.0 | 0.00 | 0.00 | 0.00 | 29 | 1012.9 |
| 20260505093334 | 68 | 302 | 0.0 | 0.0 | 0.00 | 0.00 | 0.00 | 29 | 1013.0 |
| 20260505092328 | 68 | 286 | 0.0 | 0.0 | 0.00 | 0.00 | 0.00 | 29 | 1012.9 |
| 20260505091327 | 67 | 293 | 0.0 | 0.0 | 0.00 | 0.00 | 0.00 | 29 | 1013.0 |
| 20260505090324 | 67 | 289 | 0.0 | 0.0 | 0.00 | 0.00 | 0.00 | 30 | 1013.0 |
| 20260505085319 | 67 | 277 | 0.0 | 0.0 | 0.00 | 0.00 | 0.00 | 31 | 1013.1 |
| 20260505084334 | 66 | 275 | 0.0 | 0.0 | 0.00 | 0.00 | 0.00 | 31 | 1013.1 |
| 20260505083333 | 67 | 271 | 0.0 | 0.0 | 0.00 | 0.00 | 0.00 | 31 | 1013.1 |
| 20260505082330 | 67 | 281 | 0.0 | 0.0 | 0.00 | 0.00 | 0.00 | 31 | 1013.2 |
| 20260505081325 | 68 | 290 | 0.0 | 0.0 | 0.00 | 0.00 | 0.00 | 30 | 1013.3 |
| 20260505080324 | 68 | 296 | 0.0 | 0.0 | 0.00 | 0.00 | 0.00 | 30 | 1013.4 |
| 20260505075319 | 67 | 305 | 0.0 | 0.0 | 0.00 | 0.00 | 0.00 | 31 | 1013.4 |
| 20260505074317 | 67 | 301 | 0.0 | 0.0 | 0.00 | 0.00 | 0.00 | 31 | 1013.6 |
| 20260505073319 | 67 | 301 | 0.0 | 0.0 | 0.00 | 0.00 | 0.00 | 30 | 1013.5 |
| 20260505072333 | 67 | 301 | 0.0 | 0.0 | 0.00 | 0.00 | 0.00 | 30 | 1013.7 |
| 20260505071332 | 67 | 301 | 0.0 | 0.0 | 0.00 | 0.00 | 0.00 | 30 | 1013.7 |
| 20260505070326 | 68 | 301 | 0.0 | 0.0 | 0.00 | 0.00 | 0.00 | 30 | 1013.8 |
| 20260505065325 | 68 | 301 | 0.0 | 0.0 | 0.00 | 0.00 | 0.00 | 30 | 1013.8 |
| 20260505064320 | 68 | 301 | 0.0 | 0.0 | 0.00 | 0.00 | 0.00 | 30 | 1013.9 |
| 20260505063335 | 68 | 302 | 0.0 | 0.0 | 0.00 | 0.00 | 0.00 | 29 | 1014.1 |
| 20260505062333 | 68 | 301 | 0.0 | 0.0 | 0.00 | 0.00 | 0.00 | 30 | 1014.1 |
| 20260505061331 | 69 | 302 | 0.0 | 0.0 | 0.00 | 0.00 | 0.00 | 28 | 1014.2 |
| 20260505060326 | 69 | 302 | 0.0 | 0.0 | 0.00 | 0.00 | 0.00 | 29 | 1014.2 |
| 20260505055321 | 69 | 302 | 0.0 | 0.0 | 0.00 | 0.00 | 0.00 | 29 | 1014.4 |